Погода Ла-Монкадана неделю

Гуанахуато, Мексика

01 - 07 марта
  • 01марта
    Сегодня
    +10°
    +30°
    Ясно и безоблачно
    ВремяПогодаТемператураВлажностьДавлениеВетер, м/сВероятность осадков
    00:00Облачно с прояснениями+18°C48 %622 мм1.2 м/с2 %
    03:00Облачно с прояснениями+15°C58 %621 мм0.9 м/с2 %
    06:00Облачно с прояснениями+13°C67 %620 мм1.0 м/с2 %
    09:00Небольшая облачность+17°C45 %623 мм0.9 м/с2 %
    12:00Небольшая облачность+26°C20 %625 мм2.3 м/с2 %
    15:00Ясно и безоблачно+30°C13 %624 мм3.7 м/с2 %
    18:00Облачно с прояснениями+27°C22 %623 мм5.0 м/с2 %
    21:00Облачно с прояснениями+21°C33 %623 мм2.1 м/с2 %
  • 02марта
    Суббота
    +10°
    +30°
    Ясно и безоблачно
    ВремяПогодаТемператураВлажностьДавлениеВетер, м/сВероятность осадков
    00:00Облачно с прояснениями+17°C43 %622 мм1.3 м/с2 %
    03:00Практически безоблачно+14°C52 %621 мм0.5 м/с2 %
    06:00Ясно и безоблачно+12°C59 %620 мм0.9 м/с2 %
    09:00Ясно и безоблачно+17°C40 %624 мм0.7 м/с2 %
    12:00Практически безоблачно+25°C22 %625 мм1.5 м/с2 %
    15:00Ясно и безоблачно+30°C13 %623 мм2.9 м/с2 %
    18:00Ясно и безоблачно+29°C15 %622 мм3.3 м/с2 %
    21:00Ясно и безоблачно+22°C32 %623 мм2.6 м/с2 %
  • 03марта
    Воскресенье
    +10°
    +31°
    Ясно и безоблачно
    ВремяПогодаТемператураВлажностьДавлениеВетер, м/сВероятность осадков
    00:00Ясно и безоблачно+17°C40 %621 мм1.6 м/с2 %
    03:00Небольшая облачность+14°C50 %620 мм0.5 м/с2 %
    06:00Практически безоблачно+11°C58 %619 мм0.8 м/с2 %
    09:00Ясно и безоблачно+17°C39 %623 мм0.6 м/с2 %
    12:00Ясно и безоблачно+25°C18 %624 мм2.6 м/с2 %
    15:00Ясно и безоблачно+30°C15 %622 мм2.8 м/с2 %
    18:00Ясно и безоблачно+28°C21 %621 мм4.6 м/с2 %
    21:00Ясно и безоблачно+21°C35 %622 мм2.0 м/с2 %
  • 04марта
    Понедельник
    +10°
    +31°
    Ясно и безоблачно
    ВремяПогодаТемператураВлажностьДавлениеВетер, м/сВероятность осадков
    00:00Ясно и безоблачно+17°C43 %621 мм1.4 м/с2 %
    03:00Ясно и безоблачно+13°C54 %619 мм0.8 м/с2 %
    06:00Ясно и безоблачно+11°C57 %619 мм0.9 м/с2 %
    09:00Ясно и безоблачно+17°C35 %622 мм0.8 м/с2 %
    12:00Ясно и безоблачно+25°C20 %623 мм2.0 м/с2 %
    15:00Ясно и безоблачно+30°C11 %622 мм4.3 м/с2 %
    18:00Ясно и безоблачно+27°C16 %621 мм5.1 м/с2 %
    21:00Ясно и безоблачно+21°C26 %621 мм2.0 м/с2 %
Мы используем cookies
Соглашаюсь